LFBG/CNG METAR and TAF weather

Enter ICAO airport designator
Station Type Date Time Source
LFBG METAR 2020/07/08 01:00 UTC NOAA

LFBG 080100Z AUTO 05002KT CAVOK 16/09 Q1019 NOSIG


Station Type Date Time Source
LFBG Decoded METAR 2020/07/08 01:00 UTC NOAA

Cognac, France (LFBG) 45-40N 000-19W 31M
Jul 07, 2020 - 09:00 PM EDT / 2020.07.08 0100 UTC
Wind: from the NE (050 degrees) at 2 MPH (2 KT):0
Visibility: greater than 7 mile(s):0
Temperature: 60 F (16 C)
Dew Point: 48 F (9 C)
Relative Humidity: 63%
Pressure (altimeter): 30.09 in. Hg (1019 hPa)
ob: LFBG 080100Z AUTO 05002KT CAVOK 16/09 Q1019 NOSIG
cycle: 1

Station Type Date Time Source
LFBG TAF 2020/07/07 21:51 UTC NOAA

TAF TAF LFBG 072000Z 0721/0821 32005KT CAVOK

Example: see airport list